createdAt,value
2023-06-17T00:00:10.847Z,61.18
2023-06-17T00:02:59.478Z,62.87
2023-06-17T00:05:27.727Z,64.32
2023-06-17T00:07:55.771Z,65.09
2023-06-17T00:10:24.130Z,65.54
2023-06-17T00:12:52.206Z,65.60
2023-06-17T00:15:21.882Z,65.68
2023-06-17T00:17:51.579Z,65.81
2023-06-17T00:20:19.988Z,66.01
2023-06-17T00:22:48.583Z,66.76
2023-06-17T00:25:16.903Z,67.15
2023-06-17T00:27:45.608Z,66.99
2023-06-17T00:30:14.052Z,66.85
2023-06-17T00:32:43.177Z,66.57
2023-06-17T00:35:11.457Z,66.52
2023-06-17T00:37:39.495Z,66.74
2023-06-17T00:40:09.685Z,66.97
2023-06-17T00:42:38.090Z,67.11
2023-06-17T00:45:07.342Z,67.16
2023-06-17T00:47:35.872Z,67.18
2023-06-17T00:50:05.191Z,67.54
2023-06-17T00:52:41.708Z,67.67
2023-06-17T00:55:11.065Z,68.08
2023-06-17T00:57:40.325Z,68.47
2023-06-17T01:00:12.942Z,68.67
2023-06-17T01:02:44.403Z,68.53
2023-06-17T01:05:16.537Z,68.29
2023-06-17T01:08:11.232Z,67.51
2023-06-17T01:11:02.122Z,66.64
2023-06-17T01:13:32.141Z,66.17
2023-06-17T01:16:03.322Z,66.69
2023-06-17T01:18:32.735Z,67.15
2023-06-17T01:21:01.322Z,67.48
2023-06-17T01:23:34.450Z,67.84
2023-06-17T01:26:03.678Z,68.23
2023-06-17T01:28:34.390Z,68.27
2023-06-17T01:31:03.156Z,68.32
2023-06-17T01:33:31.668Z,68.09
2023-06-17T01:36:16.221Z,67.73
2023-06-17T01:38:49.452Z,66.93
2023-06-17T01:41:20.656Z,66.84
2023-06-17T01:43:50.580Z,66.72
2023-06-17T01:46:19.152Z,66.97
2023-06-17T01:48:47.444Z,67.58
2023-06-17T01:51:15.541Z,67.89
2023-06-17T01:53:45.053Z,67.87
2023-06-17T01:56:13.459Z,67.95
2023-06-17T01:58:41.525Z,68.13
2023-06-17T02:01:10.824Z,68.45
2023-06-17T02:03:40.585Z,68.69
2023-06-17T02:06:09.041Z,68.83
2023-06-17T02:08:37.760Z,68.82
2023-06-17T02:11:06.120Z,68.74
2023-06-17T02:13:34.303Z,68.55
2023-06-17T02:16:02.415Z,68.49
2023-06-17T02:18:33.644Z,68.23
2023-06-17T02:21:02.966Z,68.42
2023-06-17T02:23:31.397Z,68.53
2023-06-17T02:25:59.675Z,68.70
2023-06-17T02:28:27.712Z,68.56
2023-06-17T02:30:56.152Z,68.53
2023-06-17T02:33:24.911Z,69.15
2023-06-17T02:35:52.950Z,70.43
2023-06-17T02:38:21.713Z,71.83
2023-06-17T02:40:49.918Z,72.71
2023-06-17T02:43:18.123Z,73.36
2023-06-17T02:45:46.295Z,73.76
2023-06-17T02:48:14.673Z,74.00
2023-06-17T02:50:43.766Z,74.15
2023-06-17T02:53:11.941Z,74.18
2023-06-17T02:55:46.756Z,74.10
2023-06-17T02:58:20.676Z,74.17
2023-06-17T03:00:52.178Z,74.17
2023-06-17T03:03:24.457Z,74.28
2023-06-17T03:05:52.884Z,74.19
2023-06-17T03:08:20.948Z,74.43
2023-06-17T03:10:49.441Z,74.42
2023-06-17T03:13:17.554Z,74.30
2023-06-17T03:15:47.316Z,74.30
2023-06-17T03:18:15.738Z,74.43
2023-06-17T03:20:43.945Z,74.14
2023-06-17T03:23:12.561Z,74.10
2023-06-17T03:25:40.719Z,73.82
2023-06-17T03:28:08.937Z,73.65
2023-06-17T03:30:41.247Z,73.29
2023-06-17T03:33:10.976Z,73.40
2023-06-17T03:35:39.169Z,73.24
2023-06-17T03:38:09.130Z,73.17
2023-06-17T03:40:37.910Z,73.18
2023-06-17T03:43:06.297Z,73.26
2023-06-17T03:45:36.719Z,73.43
2023-06-17T03:48:05.398Z,73.72
2023-06-17T03:50:35.569Z,73.97
2023-06-17T03:53:03.862Z,74.29
2023-06-17T03:55:32.715Z,74.45
2023-06-17T03:58:01.855Z,74.73
2023-06-17T04:00:31.769Z,74.91
2023-06-17T04:03:00.054Z,75.12
2023-06-17T04:05:34.517Z,75.29
2023-06-17T04:08:04.331Z,75.66
2023-06-17T04:10:32.344Z,75.88
2023-06-17T04:13:00.626Z,76.04
2023-06-17T04:15:29.140Z,76.03
2023-06-17T04:17:58.564Z,75.98
2023-06-17T04:20:28.333Z,76.02
2023-06-17T04:22:56.597Z,76.03
2023-06-17T04:25:24.681Z,76.01
2023-06-17T04:27:57.477Z,76.13
2023-06-17T04:30:27.983Z,76.34
2023-06-17T04:33:01.644Z,76.41
2023-06-17T04:35:31.387Z,76.52
2023-06-17T04:38:02.172Z,76.63
2023-06-17T04:40:33.364Z,76.60
2023-06-17T04:43:02.639Z,76.61
2023-06-17T04:45:31.965Z,76.92
2023-06-17T04:48:07.296Z,76.78
2023-06-17T04:50:36.928Z,76.51
2023-06-17T04:53:05.347Z,76.33
2023-06-17T04:55:37.488Z,75.99
2023-06-17T04:58:07.157Z,75.76
2023-06-17T05:00:47.399Z,75.77
2023-06-17T05:03:18.898Z,75.99
2023-06-17T05:05:47.076Z,76.08
2023-06-17T05:08:15.263Z,76.10
2023-06-17T05:10:43.607Z,76.31
2023-06-17T05:13:11.789Z,76.59
2023-06-17T05:15:41.009Z,76.92
2023-06-17T05:18:10.833Z,77.16
2023-06-17T05:20:39.271Z,77.18
2023-06-17T05:23:07.999Z,76.65
2023-06-17T05:25:36.440Z,76.48
2023-06-17T05:28:11.791Z,76.48
2023-06-17T05:30:41.492Z,76.18
2023-06-17T05:33:10.762Z,76.30
2023-06-17T05:35:39.273Z,76.13
2023-06-17T05:38:07.317Z,76.04
2023-06-17T05:40:35.824Z,76.04
2023-06-17T05:43:04.221Z,75.74
2023-06-17T05:45:32.430Z,75.21
2023-06-17T05:48:00.935Z,74.96
2023-06-17T05:50:31.239Z,74.35
2023-06-17T05:53:01.000Z,74.18
2023-06-17T05:55:29.154Z,73.31
2023-06-17T05:57:57.735Z,72.67
2023-06-17T06:00:26.587Z,72.12
2023-06-17T06:02:55.498Z,71.31
2023-06-17T06:05:24.451Z,70.72
2023-06-17T06:07:52.563Z,69.53
2023-06-17T06:10:22.411Z,68.60
2023-06-17T06:12:55.930Z,67.89
2023-06-17T06:15:26.901Z,66.77
2023-06-17T06:17:55.347Z,65.95
2023-06-17T06:20:24.042Z,65.93
2023-06-17T06:22:52.609Z,65.26
2023-06-17T06:25:21.429Z,64.43
2023-06-17T06:27:51.736Z,64.39
2023-06-17T06:30:20.550Z,63.62
2023-06-17T06:32:51.594Z,63.08
2023-06-17T06:35:20.139Z,62.97
2023-06-17T06:37:48.456Z,62.20
2023-06-17T06:40:17.055Z,61.95
2023-06-17T06:42:45.372Z,61.77
2023-06-17T06:45:26.775Z,61.39
2023-06-17T06:47:56.470Z,61.41
2023-06-17T06:50:26.229Z,60.97
2023-06-17T06:52:54.582Z,61.86
2023-06-17T06:55:23.575Z,62.31
2023-06-17T06:57:53.361Z,61.98
2023-06-17T07:00:21.826Z,62.31
2023-06-17T07:02:51.058Z,62.43
2023-06-17T07:05:23.521Z,62.53
2023-06-17T07:07:55.223Z,62.21
2023-06-17T07:10:23.676Z,61.82
2023-06-17T07:12:52.450Z,61.77
2023-06-17T07:15:21.022Z,61.72
2023-06-17T07:17:51.008Z,61.41
2023-06-17T07:20:19.613Z,61.74
2023-06-17T07:22:48.310Z,61.56
2023-06-17T07:25:16.890Z,62.54
2023-06-17T07:27:44.845Z,62.52
2023-06-17T07:30:13.957Z,62.29
2023-06-17T07:32:42.368Z,62.41
2023-06-17T07:35:11.055Z,62.49
2023-06-17T07:37:39.712Z,62.36
2023-06-17T07:40:14.178Z,62.19
2023-06-17T07:42:45.713Z,62.11
2023-06-17T07:45:13.790Z,61.92
2023-06-17T07:47:42.066Z,61.68
2023-06-17T07:50:11.261Z,60.98
2023-06-17T07:52:39.371Z,61.03
2023-06-17T07:55:11.931Z,60.82
2023-06-17T07:57:40.050Z,60.61
2023-06-17T08:00:14.031Z,59.79
2023-06-17T08:02:45.338Z,59.52
2023-06-17T08:05:13.992Z,59.79
2023-06-17T08:07:42.202Z,59.37
2023-06-17T08:10:11.593Z,58.82
2023-06-17T08:12:39.781Z,58.84
2023-06-17T08:15:09.351Z,59.20
2023-06-17T08:17:37.605Z,58.97
2023-06-17T08:20:06.581Z,58.73
2023-06-17T08:22:34.689Z,58.14
2023-06-17T08:25:02.698Z,58.34
2023-06-17T08:27:32.285Z,58.76
2023-06-17T08:30:00.963Z,58.91
2023-06-17T08:32:29.117Z,59.11
2023-06-17T08:34:57.459Z,59.27
2023-06-17T08:37:26.100Z,58.84
2023-06-17T08:39:53.998Z,58.86
2023-06-17T08:42:23.190Z,59.05
2023-06-17T08:44:52.974Z,59.69
2023-06-17T08:47:22.172Z,60.26
2023-06-17T08:49:50.869Z,60.17
2023-06-17T08:52:19.953Z,60.51
2023-06-17T08:54:49.564Z,60.67
2023-06-17T08:57:19.005Z,61.07
2023-06-17T08:59:47.546Z,60.99
2023-06-17T09:02:16.991Z,60.52
2023-06-17T09:04:45.346Z,60.22
2023-06-17T09:07:14.055Z,60.51
2023-06-17T09:09:50.032Z,60.52
2023-06-17T09:12:18.057Z,61.02
2023-06-17T09:14:46.345Z,60.76
2023-06-17T09:17:29.701Z,60.72
2023-06-17T09:19:58.236Z,60.28
2023-06-17T09:22:27.750Z,59.91
2023-06-17T09:25:00.049Z,60.16
2023-06-17T09:27:28.790Z,59.71
2023-06-17T09:30:07.995Z,59.48
2023-06-17T09:32:41.349Z,59.17
2023-06-17T09:35:17.023Z,58.44
2023-06-17T09:38:02.475Z,58.59
2023-06-17T09:40:35.403Z,58.85
2023-06-17T09:43:25.117Z,58.55
2023-06-17T09:45:57.264Z,58.04
2023-06-17T09:48:31.723Z,58.07
2023-06-17T09:51:00.790Z,58.19
2023-06-17T09:53:31.548Z,58.25
2023-06-17T09:56:01.296Z,58.05
2023-06-17T09:58:32.485Z,58.08
2023-06-17T10:01:07.307Z,57.92
2023-06-17T10:03:36.659Z,58.37
2023-06-17T10:06:12.576Z,58.42
2023-06-17T10:08:43.397Z,58.57
2023-06-17T10:11:18.913Z,58.80
2023-06-17T10:14:08.434Z,58.12
2023-06-17T10:16:41.385Z,58.24
2023-06-17T10:19:13.281Z,57.66
2023-06-17T10:21:46.793Z,56.97
2023-06-17T10:24:17.012Z,57.17
2023-06-17T10:26:45.028Z,56.96
2023-06-17T10:29:13.705Z,56.51
2023-06-17T10:31:44.184Z,55.87
2023-06-17T10:34:17.634Z,55.63
2023-06-17T10:36:58.599Z,54.88
2023-06-17T10:39:26.753Z,54.86
2023-06-17T10:41:57.325Z,55.06
2023-06-17T10:44:29.540Z,55.17
2023-06-17T10:46:58.198Z,54.67
2023-06-17T10:49:26.496Z,54.24
2023-06-17T10:52:00.892Z,54.21
2023-06-17T10:54:31.871Z,53.44
2023-06-17T10:57:05.499Z,53.16
2023-06-17T10:59:33.976Z,53.29
2023-06-17T11:02:10.833Z,53.86
2023-06-17T11:04:42.326Z,53.78
2023-06-17T11:07:10.851Z,53.63
2023-06-17T11:09:38.961Z,53.50
2023-06-17T11:12:09.120Z,52.85
2023-06-17T11:14:38.731Z,52.86
2023-06-17T11:17:09.537Z,52.83
2023-06-17T11:19:37.967Z,53.18
2023-06-17T11:22:08.416Z,52.69
2023-06-17T11:24:37.253Z,52.43
2023-06-17T11:27:07.167Z,52.54
2023-06-17T11:29:35.828Z,52.07
2023-06-17T11:32:04.123Z,51.90
2023-06-17T11:34:35.138Z,52.25
2023-06-17T11:37:07.903Z,52.84
2023-06-17T11:39:39.196Z,52.71
2023-06-17T11:42:08.856Z,51.49
2023-06-17T11:44:37.922Z,52.24
2023-06-17T11:47:08.733Z,52.14
2023-06-17T11:49:42.719Z,52.40
2023-06-17T11:52:11.308Z,52.07
2023-06-17T11:54:53.460Z,51.56
2023-06-17T11:57:27.006Z,51.53
2023-06-17T12:00:06.399Z,50.86
2023-06-17T12:02:41.027Z,50.65
2023-06-17T12:05:10.605Z,50.36
2023-06-17T12:07:42.565Z,50.66
2023-06-17T12:10:13.304Z,51.28
2023-06-17T12:12:42.638Z,50.95
2023-06-17T12:15:16.529Z,50.82
2023-06-17T12:17:47.863Z,50.53
2023-06-17T12:20:18.227Z,50.91
2023-06-17T12:22:49.011Z,50.72
2023-06-17T12:25:17.751Z,50.29
2023-06-17T12:27:46.068Z,50.79
2023-06-17T12:30:15.524Z,50.50
2023-06-17T12:32:44.782Z,50.07
2023-06-17T12:35:13.578Z,50.23
2023-06-17T12:37:42.896Z,50.93
2023-06-17T12:40:12.814Z,51.17
2023-06-17T12:42:42.014Z,50.35
2023-06-17T12:45:11.046Z,49.68
2023-06-17T12:47:39.874Z,48.65
2023-06-17T12:50:08.708Z,48.42
2023-06-17T12:52:37.530Z,48.98
2023-06-17T12:55:06.485Z,48.12
2023-06-17T12:57:34.812Z,48.06
2023-06-17T13:00:06.241Z,47.55
2023-06-17T13:02:37.248Z,48.75
2023-06-17T13:05:06.783Z,48.50
2023-06-17T13:07:34.825Z,48.67
2023-06-17T13:10:03.470Z,47.98
2023-06-17T13:12:31.987Z,47.03
2023-06-17T13:15:00.663Z,47.31
2023-06-17T13:17:28.815Z,47.89
2023-06-17T13:19:57.565Z,48.85
2023-06-17T13:22:27.036Z,47.89
2023-06-17T13:24:55.224Z,46.85
2023-06-17T13:27:24.096Z,46.73
2023-06-17T13:29:52.472Z,46.69
2023-06-17T13:32:20.556Z,46.97
2023-06-17T13:34:48.662Z,47.34
2023-06-17T13:37:16.827Z,47.96
2023-06-17T13:39:45.140Z,48.41
2023-06-17T13:42:13.500Z,48.14
2023-06-17T13:44:45.556Z,48.59
2023-06-17T13:47:15.818Z,48.71
2023-06-17T13:49:44.329Z,48.93
2023-06-17T13:52:13.474Z,49.46
2023-06-17T13:54:41.522Z,48.97
2023-06-17T13:57:11.872Z,49.32
2023-06-17T13:59:41.003Z,49.16
2023-06-17T14:02:10.435Z,48.49
2023-06-17T14:04:38.802Z,48.84
2023-06-17T14:07:07.185Z,49.08
2023-06-17T14:09:35.499Z,49.02
2023-06-17T14:12:04.284Z,47.99
2023-06-17T14:14:32.569Z,47.19
2023-06-17T14:17:00.894Z,47.69
2023-06-17T14:19:30.318Z,47.89
2023-06-17T14:22:07.069Z,47.09
2023-06-17T14:24:39.602Z,47.12
2023-06-17T14:27:14.830Z,47.73
2023-06-17T14:29:42.874Z,47.89
2023-06-17T14:32:11.144Z,48.80
2023-06-17T14:34:39.306Z,48.61
2023-06-17T14:37:07.712Z,48.93
2023-06-17T14:39:36.266Z,49.86
2023-06-17T14:42:04.698Z,49.24
2023-06-17T14:44:32.758Z,48.56
2023-06-17T14:47:01.233Z,48.90
2023-06-17T14:49:29.477Z,48.95
2023-06-17T14:51:57.855Z,48.80
2023-06-17T14:54:26.137Z,49.07
2023-06-17T14:56:54.254Z,49.18
2023-06-17T14:59:22.481Z,49.17
2023-06-17T15:01:50.448Z,49.33
2023-06-17T15:04:21.200Z,49.30
2023-06-17T15:06:49.375Z,49.36
2023-06-17T15:09:26.922Z,49.19
2023-06-17T15:11:57.887Z,49.14
2023-06-17T15:14:28.350Z,49.07
2023-06-17T15:16:56.505Z,48.82
2023-06-17T15:19:24.662Z,48.23
2023-06-17T15:21:53.144Z,48.04
2023-06-17T15:24:21.342Z,47.43
2023-06-17T15:26:49.512Z,47.07
2023-06-17T15:29:17.781Z,47.08
2023-06-17T15:31:46.048Z,46.59
2023-06-17T15:34:14.337Z,46.11
2023-06-17T15:36:42.421Z,45.94
2023-06-17T15:39:19.821Z,45.17
2023-06-17T15:41:48.930Z,44.96
2023-06-17T15:44:17.415Z,45.68
2023-06-17T15:46:46.036Z,45.92
2023-06-17T15:49:15.044Z,46.28
2023-06-17T15:51:43.164Z,45.73
2023-06-17T15:54:11.937Z,45.56
2023-06-17T15:56:40.467Z,44.77
2023-06-17T15:59:08.797Z,44.28
2023-06-17T16:01:37.039Z,45.07
2023-06-17T16:04:33.250Z,44.60
2023-06-17T16:07:03.756Z,44.07
2023-06-17T16:09:34.347Z,44.10
2023-06-17T16:12:04.303Z,45.16
2023-06-17T16:14:33.980Z,44.94
2023-06-17T16:17:04.429Z,45.22
2023-06-17T16:19:33.166Z,45.32
2023-06-17T16:22:03.312Z,45.66
2023-06-17T16:24:32.154Z,46.07
2023-06-17T16:27:00.902Z,46.40
2023-06-17T16:29:29.348Z,46.67
2023-06-17T16:31:57.436Z,46.72
2023-06-17T16:34:25.447Z,46.61
2023-06-17T16:36:53.484Z,46.55
2023-06-17T16:39:21.739Z,46.53
2023-06-17T16:41:49.803Z,46.75
2023-06-17T16:44:18.397Z,47.13
2023-06-17T16:46:48.234Z,47.62
2023-06-17T16:49:16.484Z,47.85
2023-06-17T16:51:45.891Z,48.12
2023-06-17T16:54:14.058Z,48.58
2023-06-17T16:56:42.347Z,48.52
2023-06-17T16:59:10.609Z,48.23
2023-06-17T17:01:40.184Z,47.66
2023-06-17T17:04:13.756Z,47.26
2023-06-17T17:06:43.369Z,47.11
2023-06-17T17:09:11.609Z,47.64
2023-06-17T17:11:40.283Z,47.85
2023-06-17T17:14:09.434Z,47.72
2023-06-17T17:16:37.791Z,47.75
2023-06-17T17:19:06.265Z,47.40
2023-06-17T17:21:35.292Z,47.38
2023-06-17T17:24:06.217Z,47.48
2023-06-17T17:26:35.271Z,47.20
2023-06-17T17:29:03.970Z,47.39
2023-06-17T17:31:32.155Z,46.46
2023-06-17T17:34:00.197Z,46.24
2023-06-17T17:36:28.729Z,45.69
2023-06-17T17:38:56.778Z,45.93
2023-06-17T17:41:26.817Z,46.07
2023-06-17T17:43:55.042Z,46.06
2023-06-17T17:46:23.270Z,45.48
2023-06-17T17:48:51.498Z,45.71
2023-06-17T17:51:20.200Z,45.85
2023-06-17T17:53:48.396Z,46.45
2023-06-17T17:56:16.631Z,47.04
2023-06-17T17:58:44.759Z,48.32
2023-06-17T18:01:12.815Z,48.63
2023-06-17T18:03:41.056Z,48.96
2023-06-17T18:06:09.341Z,49.52
2023-06-17T18:08:37.446Z,49.91
2023-06-17T18:11:05.883Z,50.08
2023-06-17T18:13:33.895Z,50.46
2023-06-17T18:16:02.853Z,50.72
2023-06-17T18:18:31.137Z,51.14
2023-06-17T18:20:59.171Z,51.32
2023-06-17T18:23:27.196Z,51.25
2023-06-17T18:25:57.175Z,50.69
2023-06-17T18:28:25.166Z,49.77
2023-06-17T18:30:53.834Z,50.12
2023-06-17T18:33:21.904Z,50.61
2023-06-17T18:35:50.491Z,51.68
2023-06-17T18:38:18.661Z,53.72
2023-06-17T18:40:47.654Z,56.29
2023-06-17T18:43:15.830Z,58.16
2023-06-17T18:45:44.161Z,59.28
2023-06-17T18:48:12.126Z,60.79
2023-06-17T18:50:40.862Z,61.16
2023-06-17T18:53:09.481Z,60.60
2023-06-17T18:55:38.755Z,60.47
2023-06-17T18:58:07.749Z,60.69
2023-06-17T19:00:37.139Z,60.31
2023-06-17T19:03:05.934Z,60.31
2023-06-17T19:05:34.537Z,59.89
2023-06-17T19:08:02.537Z,58.90
2023-06-17T19:10:30.698Z,58.04
2023-06-17T19:12:59.023Z,57.36
2023-06-17T19:15:27.044Z,55.89
2023-06-17T19:18:01.982Z,54.97
2023-06-17T19:20:30.325Z,55.08
2023-06-17T19:22:58.354Z,54.93
2023-06-17T19:25:27.532Z,55.25
2023-06-17T19:27:55.655Z,55.14
2023-06-17T19:30:24.083Z,54.42
2023-06-17T19:32:52.615Z,54.35
2023-06-17T19:35:21.442Z,54.48
2023-06-17T19:37:49.596Z,54.89
2023-06-17T19:40:17.764Z,55.48
2023-06-17T19:42:45.865Z,55.94
2023-06-17T19:45:14.106Z,55.92
2023-06-17T19:47:42.827Z,55.71
2023-06-17T19:50:11.749Z,56.12
2023-06-17T19:52:39.909Z,56.31
2023-06-17T19:55:08.557Z,56.36
2023-06-17T19:57:36.918Z,56.40
2023-06-17T20:00:06.028Z,56.30
2023-06-17T20:02:40.747Z,56.83
2023-06-17T20:05:09.861Z,57.12
2023-06-17T20:07:38.300Z,57.34
2023-06-17T20:10:07.113Z,57.86
2023-06-17T20:12:35.186Z,57.79
2023-06-17T20:15:03.589Z,58.12
2023-06-17T20:17:31.949Z,58.30
2023-06-17T20:20:00.225Z,58.16
2023-06-17T20:22:28.891Z,57.96
2023-06-17T20:24:57.181Z,58.02
2023-06-17T20:27:25.353Z,58.09
2023-06-17T20:29:53.427Z,58.30
2023-06-17T20:32:21.706Z,58.48
2023-06-17T20:34:49.886Z,58.74
2023-06-17T20:37:18.040Z,58.78
2023-06-17T20:39:46.066Z,59.12
2023-06-17T20:42:14.247Z,59.51
2023-06-17T20:44:42.880Z,60.07
2023-06-17T20:47:11.072Z,60.34
2023-06-17T20:49:39.197Z,60.52
2023-06-17T20:52:07.920Z,60.47
2023-06-17T20:54:36.395Z,60.56
2023-06-17T20:57:05.058Z,60.81
2023-06-17T20:59:33.353Z,60.47
2023-06-17T21:02:01.575Z,60.51
2023-06-17T21:04:29.722Z,60.59
2023-06-17T21:06:57.909Z,60.48
2023-06-17T21:09:27.043Z,60.51
2023-06-17T21:11:55.189Z,60.68
2023-06-17T21:14:23.316Z,60.69
2023-06-17T21:16:52.455Z,60.81
2023-06-17T21:19:20.905Z,60.73
2023-06-17T21:21:49.072Z,60.86
2023-06-17T21:24:17.283Z,61.07
2023-06-17T21:26:45.650Z,61.21
2023-06-17T21:29:13.608Z,61.35
2023-06-17T21:31:41.646Z,61.71
2023-06-17T21:34:09.839Z,62.07
2023-06-17T21:36:38.427Z,62.05
2023-06-17T21:39:06.629Z,62.16
2023-06-17T21:41:34.879Z,62.28
2023-06-17T21:44:03.000Z,62.29
2023-06-17T21:46:32.301Z,62.33
2023-06-17T21:49:00.399Z,62.67
2023-06-17T21:51:28.830Z,62.71
2023-06-17T21:53:57.423Z,63.07
2023-06-17T21:56:25.476Z,63.04
2023-06-17T21:58:53.536Z,62.96
2023-06-17T22:01:22.125Z,63.02
2023-06-17T22:03:50.570Z,63.32
2023-06-17T22:06:19.068Z,63.29
2023-06-17T22:08:47.433Z,63.44
2023-06-17T22:11:15.709Z,63.92
2023-06-17T22:13:44.035Z,63.99
2023-06-17T22:16:12.665Z,64.40
2023-06-17T22:18:41.068Z,64.53
2023-06-17T22:21:09.124Z,64.92
2023-06-17T22:23:37.078Z,64.98
2023-06-17T22:26:05.253Z,65.11
2023-06-17T22:28:33.460Z,65.29
2023-06-17T22:31:01.572Z,65.37
2023-06-17T22:33:29.623Z,65.47
2023-06-17T22:35:57.880Z,65.84
2023-06-17T22:38:26.152Z,65.94
2023-06-17T22:40:54.587Z,65.75
2023-06-17T22:43:22.629Z,65.78
2023-06-17T22:45:50.787Z,65.98
2023-06-17T22:48:19.419Z,66.38
2023-06-17T22:50:47.566Z,66.62
2023-06-17T22:53:15.726Z,66.73
2023-06-17T22:55:44.360Z,66.89
2023-06-17T22:58:12.322Z,67.00
2023-06-17T23:00:40.604Z,67.22
2023-06-17T23:03:09.151Z,66.76
2023-06-17T23:05:37.556Z,66.34
2023-06-17T23:08:05.643Z,65.41
2023-06-17T23:10:33.850Z,65.07
2023-06-17T23:13:02.451Z,64.88
2023-06-17T23:15:30.469Z,64.85
2023-06-17T23:17:58.750Z,65.10
2023-06-17T23:20:26.952Z,65.47
2023-06-17T23:22:55.481Z,65.78
2023-06-17T23:25:27.656Z,66.36
2023-06-17T23:27:57.824Z,66.10
2023-06-17T23:30:26.709Z,65.69
2023-06-17T23:32:54.811Z,65.48
2023-06-17T23:35:22.914Z,65.39
2023-06-17T23:37:51.554Z,65.39
2023-06-17T23:40:20.220Z,65.39
2023-06-17T23:42:48.396Z,65.50
2023-06-17T23:45:16.831Z,65.38
2023-06-17T23:47:45.991Z,65.24
2023-06-17T23:50:14.354Z,64.96
2023-06-17T23:52:42.830Z,64.63
2023-06-17T23:55:11.329Z,64.34
2023-06-17T23:57:39.503Z,64.17
